RYR16YG EGKK-EIDW
Flight info
| Callsign | RYR16YG |
|---|---|
| Flight time | N/A |
| Altitude | 34000 |
| Route | N0436F340 NOVMA L620 NIBDA N14 OKSAW DCT BIBPE DCT OKTAD DCT MEDOG DCT KRAGY DCT PEMOB M17 VATRY |
| Aircraft | B738/M-SDGIJ1LRWYZS/SB1 |
Departure
| Time | 2026-04-15 16:10 |
|---|---|
| Airport | London Gatwick Airport (EGKK) |
Arrival
| Time | N/A |
|---|---|
| Airport | Dublin Airport (EIDW) |
| Time | Latitude | Longitude | Altitude | Speed | Heading |
|---|---|---|---|---|---|
| 2026-04-15 15:32 | 51.15376 | -0.16276 | 203 ft | 0 kts | 355° |
| 2026-04-15 15:58 | 51.15375 | -0.16276 | 203 ft | 2 kts | 355° |
| 2026-04-15 15:58 | 51.15350 | -0.16275 | 203 ft | 4 kts | 2° |
| 2026-04-15 15:59 | 51.15328 | -0.16274 | 203 ft | 4 kts | 307° |
| 2026-04-15 15:59 | 51.15326 | -0.16278 | 203 ft | 0 kts | 258° |
| 2026-04-15 16:03 | 51.15325 | -0.16281 | 214 ft | 1 kts | 258° |
| 2026-04-15 16:03 | 51.15319 | -0.16318 | 203 ft | 6 kts | 252° |
| 2026-04-15 16:03 | 51.15307 | -0.16406 | 206 ft | 9 kts | 262° |
| 2026-04-15 16:04 | 51.15297 | -0.16508 | 207 ft | 9 kts | 259° |
| 2026-04-15 16:04 | 51.15287 | -0.16595 | 208 ft | 7 kts | 258° |
| 2026-04-15 16:04 | 51.15301 | -0.16670 | 213 ft | 7 kts | 295° |
| 2026-04-15 16:04 | 51.15305 | -0.16686 | 208 ft | 0 kts | 288° |
| 2026-04-15 16:05 | 51.15311 | -0.16755 | 203 ft | 11 kts | 264° |
| 2026-04-15 16:05 | 51.15278 | -0.16817 | 203 ft | 9 kts | 198° |
| 2026-04-15 16:06 | 51.15240 | -0.16811 | 206 ft | 0 kts | 169° |
| 2026-04-15 16:08 | 51.15201 | -0.16796 | 203 ft | 10 kts | 166° |
| 2026-04-15 16:08 | 51.15127 | -0.16816 | 201 ft | 13 kts | 229° |
| 2026-04-15 16:09 | 51.15091 | -0.17023 | 206 ft | 38 kts | 257° |
| 2026-04-15 16:09 | 51.14986 | -0.17786 | 216 ft | 101 kts | 257° |
| 2026-04-15 16:09 | 51.14786 | -0.19165 | 238 ft | 149 kts | 253° |
| 2026-04-15 16:09 | 51.14647 | -0.20221 | 683 ft | 145 kts | 251° |
| 2026-04-15 16:10 | 51.14442 | -0.21807 | 1454 ft | 145 kts | 252° |
| 2026-04-15 16:10 | 51.14245 | -0.23336 | 2316 ft | 142 kts | 252° |
| 2026-04-15 16:10 | 51.14045 | -0.24883 | 3021 ft | 147 kts | 251° |
| 2026-04-15 16:10 | 51.13804 | -0.26589 | 3515 ft | 168 kts | 252° |
| 2026-04-15 16:11 | 51.13555 | -0.28448 | 4058 ft | 181 kts | 255° |
| 2026-04-15 16:11 | 51.13680 | -0.30539 | 4558 ft | 205 kts | 286° |
| 2026-04-15 16:11 | 51.14454 | -0.32734 | 4527 ft | 247 kts | 295° |
| 2026-04-15 16:11 | 51.15393 | -0.35094 | 4492 ft | 255 kts | 295° |
| 2026-04-15 16:12 | 51.16352 | -0.37482 | 4482 ft | 255 kts | 296° |
| 2026-04-15 16:12 | 51.17308 | -0.39852 | 4826 ft | 260 kts | 296° |
| 2026-04-15 16:12 | 51.18298 | -0.42264 | 5831 ft | 260 kts | 295° |
| 2026-04-15 16:12 | 51.19314 | -0.44652 | 6846 ft | 260 kts | 295° |
| 2026-04-15 16:13 | 51.20321 | -0.47037 | 7685 ft | 265 kts | 295° |
| 2026-04-15 16:13 | 51.21354 | -0.49492 | 8529 ft | 266 kts | 294° |
| 2026-04-15 16:13 | 51.22387 | -0.51942 | 9367 ft | 268 kts | 294° |
| 2026-04-15 16:13 | 51.23431 | -0.54428 | 10107 ft | 272 kts | 294° |
| 2026-04-15 16:14 | 51.24506 | -0.57005 | 10465 ft | 291 kts | 294° |
| 2026-04-15 16:14 | 51.25670 | -0.59809 | 10646 ft | 313 kts | 295° |
| 2026-04-15 16:14 | 51.26908 | -0.62778 | 11058 ft | 326 kts | 295° |
| 2026-04-15 16:14 | 51.28175 | -0.65796 | 11714 ft | 331 kts | 296° |
| 2026-04-15 16:15 | 51.29390 | -0.68680 | 12421 ft | 333 kts | 296° |
| 2026-04-15 16:15 | 51.30685 | -0.71762 | 13166 ft | 336 kts | 296° |
| 2026-04-15 16:15 | 51.31999 | -0.74897 | 13905 ft | 341 kts | 296° |
| 2026-04-15 16:15 | 51.33324 | -0.78065 | 14613 ft | 344 kts | 296° |
| 2026-04-15 16:16 | 51.34662 | -0.81272 | 15255 ft | 350 kts | 295° |
| 2026-04-15 16:16 | 51.36024 | -0.84545 | 15913 ft | 355 kts | 295° |
| 2026-04-15 16:16 | 51.37382 | -0.87810 | 16634 ft | 358 kts | 295° |
| 2026-04-15 16:16 | 51.38770 | -0.91151 | 17331 ft | 362 kts | 295° |
| 2026-04-15 16:17 | 51.40171 | -0.94530 | 17987 ft | 367 kts | 295° |
| 2026-04-15 16:17 | 51.41587 | -0.97947 | 18710 ft | 368 kts | 294° |
| 2026-04-15 16:17 | 51.42887 | -1.01083 | 19338 ft | 369 kts | 294° |
| 2026-04-15 16:17 | 51.44316 | -1.04547 | 19823 ft | 376 kts | 294° |
| 2026-04-15 16:18 | 51.45769 | -1.08076 | 20329 ft | 382 kts | 294° |
| 2026-04-15 16:18 | 51.47244 | -1.11661 | 20879 ft | 386 kts | 294° |
| 2026-04-15 16:18 | 51.48736 | -1.15286 | 21417 ft | 391 kts | 294° |
| 2026-04-15 16:18 | 51.50243 | -1.18954 | 21928 ft | 396 kts | 294° |
| 2026-04-15 16:19 | 51.51769 | -1.22676 | 22439 ft | 401 kts | 294° |
| 2026-04-15 16:19 | 51.53309 | -1.26433 | 22936 ft | 405 kts | 294° |
| 2026-04-15 16:19 | 51.54866 | -1.30239 | 23433 ft | 410 kts | 294° |
| 2026-04-15 16:19 | 51.56441 | -1.34094 | 23850 ft | 414 kts | 294° |
| 2026-04-15 16:20 | 51.58027 | -1.37981 | 24207 ft | 420 kts | 293° |
| 2026-04-15 16:20 | 51.59615 | -1.41886 | 24504 ft | 425 kts | 293° |
| 2026-04-15 16:20 | 51.61259 | -1.45924 | 25075 ft | 424 kts | 294° |
| 2026-04-15 16:20 | 51.62844 | -1.49808 | 25829 ft | 419 kts | 294° |
| 2026-04-15 16:21 | 51.64446 | -1.53758 | 26165 ft | 424 kts | 294° |
| 2026-04-15 16:21 | 51.66066 | -1.57770 | 26431 ft | 430 kts | 294° |
| 2026-04-15 16:21 | 51.67707 | -1.61835 | 26790 ft | 434 kts | 294° |
| 2026-04-15 16:21 | 51.69256 | -1.65988 | 27159 ft | 429 kts | 287° |
| 2026-04-15 16:22 | 51.70354 | -1.70416 | 27510 ft | 421 kts | 278° |
| 2026-04-15 16:22 | 51.70988 | -1.74978 | 27868 ft | 413 kts | 269° |
| 2026-04-15 16:22 | 51.71287 | -1.79581 | 28286 ft | 412 kts | 267° |
| 2026-04-15 16:22 | 51.71579 | -1.84181 | 28812 ft | 412 kts | 268° |
| 2026-04-15 16:23 | 51.72047 | -1.88755 | 29320 ft | 418 kts | 273° |
| 2026-04-15 16:23 | 51.72713 | -1.93341 | 29786 ft | 420 kts | 275° |
| 2026-04-15 16:23 | 51.73424 | -1.97878 | 30506 ft | 412 kts | 276° |
| 2026-04-15 16:23 | 51.74119 | -2.02261 | 31110 ft | 406 kts | 276° |
| 2026-04-15 16:24 | 51.74813 | -2.06746 | 31455 ft | 407 kts | 276° |
| 2026-04-15 16:24 | 51.75475 | -2.11143 | 31718 ft | 410 kts | 275° |
| 2026-04-15 16:24 | 51.76146 | -2.15668 | 32091 ft | 409 kts | 275° |
| 2026-04-15 16:24 | 51.76792 | -2.20061 | 32544 ft | 406 kts | 275° |
| 2026-04-15 16:25 | 51.77448 | -2.24543 | 32992 ft | 404 kts | 275° |
| 2026-04-15 16:25 | 51.78081 | -2.28892 | 33360 ft | 403 kts | 275° |
| 2026-04-15 16:25 | 51.78721 | -2.33304 | 33736 ft | 403 kts | 275° |
| 2026-04-15 16:25 | 51.79360 | -2.37730 | 33917 ft | 407 kts | 275° |
| 2026-04-15 16:26 | 51.80004 | -2.42199 | 33934 ft | 411 kts | 275° |
| 2026-04-15 16:26 | 51.81303 | -2.51204 | 33944 ft | 408 kts | 276° |
| 2026-04-15 16:27 | 51.82550 | -2.60040 | 33933 ft | 402 kts | 275° |
| 2026-04-15 16:27 | 51.83742 | -2.68881 | 33937 ft | 403 kts | 275° |
| 2026-04-15 16:28 | 51.84929 | -2.77749 | 33935 ft | 404 kts | 275° |
| 2026-04-15 16:28 | 51.86121 | -2.86652 | 33897 ft | 405 kts | 275° |
| 2026-04-15 16:29 | 51.87302 | -2.95517 | 33903 ft | 406 kts | 275° |
| 2026-04-15 16:29 | 51.88474 | -3.04364 | 33890 ft | 407 kts | 275° |
| 2026-04-15 16:30 | 51.89670 | -3.13448 | 33886 ft | 407 kts | 275° |
| 2026-04-15 16:30 | 51.90835 | -3.22349 | 33896 ft | 407 kts | 275° |
| 2026-04-15 16:31 | 51.92002 | -3.31321 | 33915 ft | 407 kts | 275° |
| 2026-04-15 16:31 | 51.93159 | -3.40279 | 33909 ft | 406 kts | 275° |
| 2026-04-15 16:32 | 51.94312 | -3.49256 | 33921 ft | 406 kts | 276° |
| 2026-04-15 16:32 | 51.95454 | -3.58206 | 33912 ft | 404 kts | 275° |
| 2026-04-15 16:33 | 51.96584 | -3.67132 | 33919 ft | 403 kts | 275° |
| 2026-04-15 16:33 | 51.97697 | -3.75983 | 33909 ft | 402 kts | 275° |
| 2026-04-15 16:33 | 51.98253 | -3.80416 | 33677 ft | 398 kts | 275° |
| 2026-04-15 16:34 | 51.98800 | -3.84768 | 33433 ft | 389 kts | 275° |
| 2026-04-15 16:34 | 51.99334 | -3.89040 | 33166 ft | 384 kts | 275° |
| 2026-04-15 16:34 | 51.99858 | -3.93260 | 32937 ft | 379 kts | 275° |
| 2026-04-15 16:34 | 52.00374 | -3.97435 | 32720 ft | 372 kts | 275° |
| 2026-04-15 16:35 | 52.00878 | -4.01511 | 32436 ft | 367 kts | 275° |
| 2026-04-15 16:35 | 52.01369 | -4.05512 | 32093 ft | 363 kts | 275° |
| 2026-04-15 16:35 | 52.01865 | -4.09569 | 31716 ft | 360 kts | 275° |
| 2026-04-15 16:35 | 52.02341 | -4.13480 | 31365 ft | 357 kts | 275° |
| 2026-04-15 16:36 | 52.02821 | -4.17424 | 31006 ft | 355 kts | 275° |
| 2026-04-15 16:36 | 52.03291 | -4.21297 | 30656 ft | 353 kts | 275° |
| 2026-04-15 16:36 | 52.03762 | -4.25198 | 30303 ft | 350 kts | 275° |
| 2026-04-15 16:36 | 52.04230 | -4.29072 | 29950 ft | 348 kts | 275° |
| 2026-04-15 16:37 | 52.04693 | -4.32923 | 29511 ft | 346 kts | 275° |
| 2026-04-15 16:37 | 52.05152 | -4.36744 | 29116 ft | 343 kts | 276° |
| 2026-04-15 16:37 | 52.05606 | -4.40518 | 28763 ft | 339 kts | 276° |
| 2026-04-15 16:37 | 52.06052 | -4.44255 | 28425 ft | 334 kts | 276° |
| 2026-04-15 16:38 | 52.06490 | -4.47936 | 28066 ft | 330 kts | 276° |
| 2026-04-15 16:38 | 52.06922 | -4.51580 | 27718 ft | 326 kts | 276° |
| 2026-04-15 16:38 | 52.07347 | -4.55173 | 27379 ft | 322 kts | 276° |
| 2026-04-15 16:38 | 52.07767 | -4.58730 | 27027 ft | 318 kts | 276° |
| 2026-04-15 16:39 | 52.08181 | -4.62248 | 26675 ft | 315 kts | 276° |
| 2026-04-15 16:39 | 52.08589 | -4.65730 | 26356 ft | 311 kts | 276° |
| 2026-04-15 16:39 | 52.08992 | -4.69175 | 26022 ft | 308 kts | 276° |
| 2026-04-15 16:39 | 52.09385 | -4.72540 | 25683 ft | 304 kts | 276° |
| 2026-04-15 16:40 | 52.09776 | -4.75897 | 25354 ft | 301 kts | 276° |
| 2026-04-15 16:40 | 52.10162 | -4.79223 | 25029 ft | 298 kts | 276° |
| 2026-04-15 16:40 | 52.10543 | -4.82510 | 24713 ft | 294 kts | 276° |
| 2026-04-15 16:40 | 52.10921 | -4.85773 | 24397 ft | 291 kts | 276° |